Weather at Kaufana Airport

Public forecast

Using degrees Celsius for public forecast. Weather courtesy of forecast.io.

Closest aviation weather report (METAR) to Kaufana Airport

Closest report is Fua'amotu International Airport, 13.5 nm (25.1 km) NW.

2024/03/03 10:00 (retrieved 13 minutes ago)

NFTF 031000Z 11005KT 9999 FEW015 BKN280 27/26 Q1018

Closest aviation forecast (TAF) to Kaufana Airport

Closest forecast is Fua'amotu International Airport, 13.5 nm (25.1 km) NW.

2024/03/03 06:00 (retrieved 4 hours ago)

TAF NFTF 030507Z 0306/0406 10008KT 9999 FEW017 BKN100 PROB40 TEMPO 0306/0310 8000 SHRA BKN015